sensor_id;sensor_type;location;lat;lon;timestamp;temperature;humidity
19435;DHT22;9853;50.848;4.108;2024-01-25T00:01:08;9.30;99.90
19435;DHT22;9853;50.848;4.108;2024-01-25T00:03:09;9.30;99.90
19435;DHT22;9853;50.848;4.108;2024-01-25T00:05:10;9.20;99.90
19435;DHT22;9853;50.848;4.108;2024-01-25T00:07:11;9.20;99.90
19435;DHT22;9853;50.848;4.108;2024-01-25T00:09:11;9.30;99.90
19435;DHT22;9853;50.848;4.108;2024-01-25T00:11:13;9.30;99.90
19435;DHT22;9853;50.848;4.108;2024-01-25T00:13:14;9.30;99.90
19435;DHT22;9853;50.848;4.108;2024-01-25T00:15:14;9.30;99.90
19435;DHT22;9853;50.848;4.108;2024-01-25T00:17:15;9.30;99.90
19435;DHT22;9853;50.848;4.108;2024-01-25T00:19:16;9.20;99.90
19435;DHT22;9853;50.848;4.108;2024-01-25T00:21:17;9.10;99.90
19435;DHT22;9853;50.848;4.108;2024-01-25T00:23:18;9.00;99.90
19435;DHT22;9853;50.848;4.108;2024-01-25T00:25:18;9.00;99.90
19435;DHT22;9853;50.848;4.108;2024-01-25T00:27:19;8.90;99.90
19435;DHT22;9853;50.848;4.108;2024-01-25T00:29:20;8.90;99.90
19435;DHT22;9853;50.848;4.108;2024-01-25T00:31:21;9.00;99.90
19435;DHT22;9853;50.848;4.108;2024-01-25T00:33:24;9.00;99.90
19435;DHT22;9853;50.848;4.108;2024-01-25T00:35:25;8.90;99.90
19435;DHT22;9853;50.848;4.108;2024-01-25T00:37:26;8.90;99.90
19435;DHT22;9853;50.848;4.108;2024-01-25T00:39:27;8.90;99.90
19435;DHT22;9853;50.848;4.108;2024-01-25T00:41:31;8.80;99.90
19435;DHT22;9853;50.848;4.108;2024-01-25T00:43:33;8.90;99.90
19435;DHT22;9853;50.848;4.108;2024-01-25T00:45:34;9.00;99.90
19435;DHT22;9853;50.848;4.108;2024-01-25T00:47:35;9.00;99.90
19435;DHT22;9853;50.848;4.108;2024-01-25T00:49:36;9.00;99.90
19435;DHT22;9853;50.848;4.108;2024-01-25T00:51:37;9.00;99.90
19435;DHT22;9853;50.848;4.108;2024-01-25T00:53:38;9.00;99.90
19435;DHT22;9853;50.848;4.108;2024-01-25T00:55:39;9.10;99.90
19435;DHT22;9853;50.848;4.108;2024-01-25T00:57:42;9.10;99.90
19435;DHT22;9853;50.848;4.108;2024-01-25T00:59:43;9.10;99.90
19435;DHT22;9853;50.848;4.108;2024-01-25T01:01:47;9.00;99.90
19435;DHT22;9853;50.848;4.108;2024-01-25T01:03:48;8.90;99.90
19435;DHT22;9853;50.848;4.108;2024-01-25T01:05:53;8.80;99.90
19435;DHT22;9853;50.848;4.108;2024-01-25T01:07:54;8.80;99.90
19435;DHT22;9853;50.848;4.108;2024-01-25T01:09:55;8.80;99.90
19435;DHT22;9853;50.848;4.108;2024-01-25T01:11:56;8.80;99.90
19435;DHT22;9853;50.848;4.108;2024-01-25T01:13:57;8.70;99.90
19435;DHT22;9853;50.848;4.108;2024-01-25T01:15:58;8.60;99.90
19435;DHT22;9853;50.848;4.108;2024-01-25T01:17:58;8.70;99.90
19435;DHT22;9853;50.848;4.108;2024-01-25T01:19:59;8.70;99.90
19435;DHT22;9853;50.848;4.108;2024-01-25T01:22:00;8.50;99.90
19435;DHT22;9853;50.848;4.108;2024-01-25T01:24:01;8.50;99.90
19435;DHT22;9853;50.848;4.108;2024-01-25T01:26:04;8.50;99.90
19435;DHT22;9853;50.848;4.108;2024-01-25T01:28:06;8.70;99.90
19435;DHT22;9853;50.848;4.108;2024-01-25T01:30:07;8.70;99.90
19435;DHT22;9853;50.848;4.108;2024-01-25T01:32:09;8.60;99.90
19435;DHT22;9853;50.848;4.108;2024-01-25T01:34:09;8.50;99.90
19435;DHT22;9853;50.848;4.108;2024-01-25T01:36:13;8.50;99.90
19435;DHT22;9853;50.848;4.108;2024-01-25T01:38:14;8.50;99.90
19435;DHT22;9853;50.848;4.108;2024-01-25T01:40:15;8.40;99.90
19435;DHT22;9853;50.848;4.108;2024-01-25T01:42:16;8.40;99.90
19435;DHT22;9853;50.848;4.108;2024-01-25T01:44:17;8.30;99.90
19435;DHT22;9853;50.848;4.108;2024-01-25T01:46:33;8.30;99.90
19435;DHT22;9853;50.848;4.108;2024-01-25T01:48:39;8.30;99.90
19435;DHT22;9853;50.848;4.108;2024-01-25T01:50:41;8.30;99.90
19435;DHT22;9853;50.848;4.108;2024-01-25T01:52:42;8.30;99.90
19435;DHT22;9853;50.848;4.108;2024-01-25T01:54:43;8.30;99.90
19435;DHT22;9853;50.848;4.108;2024-01-25T01:56:44;8.30;99.90
19435;DHT22;9853;50.848;4.108;2024-01-25T01:58:47;8.40;99.90
19435;DHT22;9853;50.848;4.108;2024-01-25T02:00:49;8.40;99.90
19435;DHT22;9853;50.848;4.108;2024-01-25T02:02:51;8.50;99.90
19435;DHT22;9853;50.848;4.108;2024-01-25T02:04:52;8.40;99.90
19435;DHT22;9853;50.848;4.108;2024-01-25T02:06:53;8.30;99.90
19435;DHT22;9853;50.848;4.108;2024-01-25T02:08:53;8.30;99.90
19435;DHT22;9853;50.848;4.108;2024-01-25T02:10:56;8.50;99.90
19435;DHT22;9853;50.848;4.108;2024-01-25T02:12:57;8.60;99.90
19435;DHT22;9853;50.848;4.108;2024-01-25T02:14:58;8.50;99.90
19435;DHT22;9853;50.848;4.108;2024-01-25T02:16:59;8.40;99.90
19435;DHT22;9853;50.848;4.108;2024-01-25T02:19:00;8.30;99.90
19435;DHT22;9853;50.848;4.108;2024-01-25T02:21:01;8.30;99.90
19435;DHT22;9853;50.848;4.108;2024-01-25T02:23:02;8.40;99.90
19435;DHT22;9853;50.848;4.108;2024-01-25T02:25:03;8.30;99.90
19435;DHT22;9853;50.848;4.108;2024-01-25T02:27:04;8.20;99.90
19435;DHT22;9853;50.848;4.108;2024-01-25T02:29:05;8.10;99.90
19435;DHT22;9853;50.848;4.108;2024-01-25T02:31:08;8.00;99.90
19435;DHT22;9853;50.848;4.108;2024-01-25T02:33:09;8.00;99.90
19435;DHT22;9853;50.848;4.108;2024-01-25T02:35:10;7.90;99.90
19435;DHT22;9853;50.848;4.108;2024-01-25T02:37:11;7.90;99.90
19435;DHT22;9853;50.848;4.108;2024-01-25T02:39:12;7.90;99.90
19435;DHT22;9853;50.848;4.108;2024-01-25T02:41:13;7.80;99.90
19435;DHT22;9853;50.848;4.108;2024-01-25T02:43:14;7.80;99.90
19435;DHT22;9853;50.848;4.108;2024-01-25T02:45:15;7.70;99.90
19435;DHT22;9853;50.848;4.108;2024-01-25T02:47:16;7.70;99.90
19435;DHT22;9853;50.848;4.108;2024-01-25T02:49:17;7.70;99.90
19435;DHT22;9853;50.848;4.108;2024-01-25T02:51:18;7.70;99.90
19435;DHT22;9853;50.848;4.108;2024-01-25T02:53:18;7.70;99.90
19435;DHT22;9853;50.848;4.108;2024-01-25T02:55:19;7.70;99.90
19435;DHT22;9853;50.848;4.108;2024-01-25T02:57:20;7.70;99.90
19435;DHT22;9853;50.848;4.108;2024-01-25T02:59:21;7.60;99.90
19435;DHT22;9853;50.848;4.108;2024-01-25T03:01:22;7.50;99.90
19435;DHT22;9853;50.848;4.108;2024-01-25T03:03:23;7.50;99.90
19435;DHT22;9853;50.848;4.108;2024-01-25T03:05:27;7.40;99.90
19435;DHT22;9853;50.848;4.108;2024-01-25T03:07:28;7.40;99.90
19435;DHT22;9853;50.848;4.108;2024-01-25T03:09:29;7.40;99.90
19435;DHT22;9853;50.848;4.108;2024-01-25T03:11:30;7.40;99.90
19435;DHT22;9853;50.848;4.108;2024-01-25T03:13:31;7.50;99.90
19435;DHT22;9853;50.848;4.108;2024-01-25T03:15:32;7.50;99.90
19435;DHT22;9853;50.848;4.108;2024-01-25T03:17:33;7.60;99.90
19435;DHT22;9853;50.848;4.108;2024-01-25T03:19:34;7.60;99.90
19435;DHT22;9853;50.848;4.108;2024-01-25T03:21:34;7.60;99.90
19435;DHT22;9853;50.848;4.108;2024-01-25T03:23:35;7.50;99.90
19435;DHT22;9853;50.848;4.108;2024-01-25T03:25:36;7.60;99.90
19435;DHT22;9853;50.848;4.108;2024-01-25T03:27:37;7.60;99.90
19435;DHT22;9853;50.848;4.108;2024-01-25T03:29:38;7.50;99.90
19435;DHT22;9853;50.848;4.108;2024-01-25T03:31:39;7.50;99.90
19435;DHT22;9853;50.848;4.108;2024-01-25T03:33:39;7.50;99.90
19435;DHT22;9853;50.848;4.108;2024-01-25T03:35:40;7.40;99.90
19435;DHT22;9853;50.848;4.108;2024-01-25T03:37:41;7.50;99.90
19435;DHT22;9853;50.848;4.108;2024-01-25T03:39:42;7.50;99.90
19435;DHT22;9853;50.848;4.108;2024-01-25T03:41:43;7.40;99.90
19435;DHT22;9853;50.848;4.108;2024-01-25T03:43:44;7.40;99.90
19435;DHT22;9853;50.848;4.108;2024-01-25T03:45:45;7.40;99.90
19435;DHT22;9853;50.848;4.108;2024-01-25T03:47:46;7.40;99.90
19435;DHT22;9853;50.848;4.108;2024-01-25T03:49:47;7.50;99.90
19435;DHT22;9853;50.848;4.108;2024-01-25T03:51:48;7.40;99.90
19435;DHT22;9853;50.848;4.108;2024-01-25T03:53:50;7.40;99.90
19435;DHT22;9853;50.848;4.108;2024-01-25T03:55:51;7.40;99.90
19435;DHT22;9853;50.848;4.108;2024-01-25T03:57:51;7.50;99.90
19435;DHT22;9853;50.848;4.108;2024-01-25T03:59:52;7.40;99.90
19435;DHT22;9853;50.848;4.108;2024-01-25T04:01:53;7.50;99.90
19435;DHT22;9853;50.848;4.108;2024-01-25T04:03:54;7.50;99.90
19435;DHT22;9853;50.848;4.108;2024-01-25T04:05:55;7.40;99.90
19435;DHT22;9853;50.848;4.108;2024-01-25T04:07:56;7.40;99.90
19435;DHT22;9853;50.848;4.108;2024-01-25T04:09:56;7.30;99.90
19435;DHT22;9853;50.848;4.108;2024-01-25T04:11:57;7.30;99.90
19435;DHT22;9853;50.848;4.108;2024-01-25T04:13:58;7.30;99.90
19435;DHT22;9853;50.848;4.108;2024-01-25T04:15:59;7.20;99.90
19435;DHT22;9853;50.848;4.108;2024-01-25T04:18:00;7.10;99.90
19435;DHT22;9853;50.848;4.108;2024-01-25T04:20:04;6.90;99.90
19435;DHT22;9853;50.848;4.108;2024-01-25T04:22:05;6.90;99.90
19435;DHT22;9853;50.848;4.108;2024-01-25T04:24:06;7.00;99.90
19435;DHT22;9853;50.848;4.108;2024-01-25T04:26:07;7.00;99.90
19435;DHT22;9853;50.848;4.108;2024-01-25T04:28:07;7.00;99.90
19435;DHT22;9853;50.848;4.108;2024-01-25T04:30:08;7.10;99.90
19435;DHT22;9853;50.848;4.108;2024-01-25T04:32:12;7.10;99.90
19435;DHT22;9853;50.848;4.108;2024-01-25T04:34:13;7.10;99.90
19435;DHT22;9853;50.848;4.108;2024-01-25T04:36:14;7.00;99.90
19435;DHT22;9853;50.848;4.108;2024-01-25T04:38:15;7.00;99.90
19435;DHT22;9853;50.848;4.108;2024-01-25T04:40:16;7.00;99.90
19435;DHT22;9853;50.848;4.108;2024-01-25T04:42:18;7.10;99.90
19435;DHT22;9853;50.848;4.108;2024-01-25T04:44:19;7.10;99.90
19435;DHT22;9853;50.848;4.108;2024-01-25T04:46:19;6.90;99.90
19435;DHT22;9853;50.848;4.108;2024-01-25T04:48:20;6.80;99.90
19435;DHT22;9853;50.848;4.108;2024-01-25T04:50:21;6.70;99.90
19435;DHT22;9853;50.848;4.108;2024-01-25T04:52:22;6.70;99.90
19435;DHT22;9853;50.848;4.108;2024-01-25T04:54:23;6.80;99.90
19435;DHT22;9853;50.848;4.108;2024-01-25T04:56:24;6.80;99.90
19435;DHT22;9853;50.848;4.108;2024-01-25T04:58:24;6.90;99.90
19435;DHT22;9853;50.848;4.108;2024-01-25T05:00:25;6.80;99.90
19435;DHT22;9853;50.848;4.108;2024-01-25T05:02:32;6.70;99.90
19435;DHT22;9853;50.848;4.108;2024-01-25T05:04:33;6.50;99.90
19435;DHT22;9853;50.848;4.108;2024-01-25T05:06:35;6.50;99.90
19435;DHT22;9853;50.848;4.108;2024-01-25T05:08:36;6.50;99.90
19435;DHT22;9853;50.848;4.108;2024-01-25T05:10:37;6.50;99.90
19435;DHT22;9853;50.848;4.108;2024-01-25T05:12:38;6.60;99.90
19435;DHT22;9853;50.848;4.108;2024-01-25T05:14:39;6.60;99.90
19435;DHT22;9853;50.848;4.108;2024-01-25T05:16:40;6.50;99.90
19435;DHT22;9853;50.848;4.108;2024-01-25T05:18:40;6.30;99.90
19435;DHT22;9853;50.848;4.108;2024-01-25T05:20:41;6.20;99.90
19435;DHT22;9853;50.848;4.108;2024-01-25T05:22:42;6.30;99.90
19435;DHT22;9853;50.848;4.108;2024-01-25T05:24:43;6.50;99.90
19435;DHT22;9853;50.848;4.108;2024-01-25T05:26:46;6.70;99.90
19435;DHT22;9853;50.848;4.108;2024-01-25T05:28:47;6.80;99.90
19435;DHT22;9853;50.848;4.108;2024-01-25T05:30:48;6.70;99.90
19435;DHT22;9853;50.848;4.108;2024-01-25T05:32:49;6.50;99.90
19435;DHT22;9853;50.848;4.108;2024-01-25T05:34:50;6.20;99.90
19435;DHT22;9853;50.848;4.108;2024-01-25T05:36:51;6.20;99.90
19435;DHT22;9853;50.848;4.108;2024-01-25T05:38:55;6.20;99.90
19435;DHT22;9853;50.848;4.108;2024-01-25T05:40:56;6.40;99.90
19435;DHT22;9853;50.848;4.108;2024-01-25T05:42:57;6.50;99.90
19435;DHT22;9853;50.848;4.108;2024-01-25T05:44:58;6.60;99.90
19435;DHT22;9853;50.848;4.108;2024-01-25T05:46:59;6.50;99.90
19435;DHT22;9853;50.848;4.108;2024-01-25T05:49:00;6.40;99.90
19435;DHT22;9853;50.848;4.108;2024-01-25T05:51:01;6.20;99.90
19435;DHT22;9853;50.848;4.108;2024-01-25T05:53:02;6.10;99.90
19435;DHT22;9853;50.848;4.108;2024-01-25T05:55:06;6.10;99.90
19435;DHT22;9853;50.848;4.108;2024-01-25T05:57:08;6.10;99.90
19435;DHT22;9853;50.848;4.108;2024-01-25T05:59:09;6.20;99.90
19435;DHT22;9853;50.848;4.108;2024-01-25T06:01:10;6.30;99.90
19435;DHT22;9853;50.848;4.108;2024-01-25T06:03:11;6.30;99.90
19435;DHT22;9853;50.848;4.108;2024-01-25T06:05:12;6.20;99.90
19435;DHT22;9853;50.848;4.108;2024-01-25T06:07:13;6.20;99.90
19435;DHT22;9853;50.848;4.108;2024-01-25T06:09:13;6.20;99.90
19435;DHT22;9853;50.848;4.108;2024-01-25T06:11:17;6.20;99.90
19435;DHT22;9853;50.848;4.108;2024-01-25T06:13:18;6.30;99.90
19435;DHT22;9853;50.848;4.108;2024-01-25T06:15:19;6.50;99.90
19435;DHT22;9853;50.848;4.108;2024-01-25T06:17:20;6.60;99.90
19435;DHT22;9853;50.848;4.108;2024-01-25T06:19:21;6.80;99.90
19435;DHT22;9853;50.848;4.108;2024-01-25T06:21:22;6.60;99.90
19435;DHT22;9853;50.848;4.108;2024-01-25T06:23:23;6.40;99.90
19435;DHT22;9853;50.848;4.108;2024-01-25T06:25:24;6.20;99.90
19435;DHT22;9853;50.848;4.108;2024-01-25T06:27:25;6.00;99.90
19435;DHT22;9853;50.848;4.108;2024-01-25T06:29:26;6.00;99.90
19435;DHT22;9853;50.848;4.108;2024-01-25T06:31:27;6.10;99.90
19435;DHT22;9853;50.848;4.108;2024-01-25T06:33:28;6.00;99.90
19435;DHT22;9853;50.848;4.108;2024-01-25T06:35:29;6.10;99.90
19435;DHT22;9853;50.848;4.108;2024-01-25T06:37:30;6.10;99.90
19435;DHT22;9853;50.848;4.108;2024-01-25T06:39:30;5.90;99.90
19435;DHT22;9853;50.848;4.108;2024-01-25T06:41:33;5.90;99.90
19435;DHT22;9853;50.848;4.108;2024-01-25T06:43:49;5.90;99.90
19435;DHT22;9853;50.848;4.108;2024-01-25T06:45:50;6.00;99.90
19435;DHT22;9853;50.848;4.108;2024-01-25T06:47:50;6.20;99.90
19435;DHT22;9853;50.848;4.108;2024-01-25T06:49:51;6.40;99.90
19435;DHT22;9853;50.848;4.108;2024-01-25T06:51:52;6.60;99.90
19435;DHT22;9853;50.848;4.108;2024-01-25T06:53:53;6.70;99.90
19435;DHT22;9853;50.848;4.108;2024-01-25T06:55:55;6.40;99.90
19435;DHT22;9853;50.848;4.108;2024-01-25T06:57:56;6.10;99.90
19435;DHT22;9853;50.848;4.108;2024-01-25T06:59:57;6.00;99.90
19435;DHT22;9853;50.848;4.108;2024-01-25T07:01:57;6.00;99.90
19435;DHT22;9853;50.848;4.108;2024-01-25T07:03:58;5.90;99.90
19435;DHT22;9853;50.848;4.108;2024-01-25T07:05:59;6.00;99.90
19435;DHT22;9853;50.848;4.108;2024-01-25T07:08:00;6.10;99.90
19435;DHT22;9853;50.848;4.108;2024-01-25T07:10:01;6.20;99.90
19435;DHT22;9853;50.848;4.108;2024-01-25T07:12:02;6.30;99.90
19435;DHT22;9853;50.848;4.108;2024-01-25T07:14:02;6.20;99.90
19435;DHT22;9853;50.848;4.108;2024-01-25T07:16:04;6.10;99.90
19435;DHT22;9853;50.848;4.108;2024-01-25T07:18:05;6.00;99.90
19435;DHT22;9853;50.848;4.108;2024-01-25T07:20:06;6.00;99.90
19435;DHT22;9853;50.848;4.108;2024-01-25T07:22:07;5.90;99.90
19435;DHT22;9853;50.848;4.108;2024-01-25T07:24:08;6.00;99.90
19435;DHT22;9853;50.848;4.108;2024-01-25T07:26:16;6.30;99.90
19435;DHT22;9853;50.848;4.108;2024-01-25T07:28:19;6.40;99.90
19435;DHT22;9853;50.848;4.108;2024-01-25T07:30:20;6.50;99.90
19435;DHT22;9853;50.848;4.108;2024-01-25T07:32:21;6.70;99.90
19435;DHT22;9853;50.848;4.108;2024-01-25T07:34:22;6.80;99.90
19435;DHT22;9853;50.848;4.108;2024-01-25T07:36:23;6.70;99.90
19435;DHT22;9853;50.848;4.108;2024-01-25T07:38:23;6.60;99.90
19435;DHT22;9853;50.848;4.108;2024-01-25T07:40:24;6.50;99.90
19435;DHT22;9853;50.848;4.108;2024-01-25T07:42:25;6.50;99.90
19435;DHT22;9853;50.848;4.108;2024-01-25T07:44:26;6.80;99.90
19435;DHT22;9853;50.848;4.108;2024-01-25T07:46:30;6.90;99.90
19435;DHT22;9853;50.848;4.108;2024-01-25T07:48:31;7.10;99.90
19435;DHT22;9853;50.848;4.108;2024-01-25T07:50:32;7.10;99.90
19435;DHT22;9853;50.848;4.108;2024-01-25T07:52:33;7.10;99.90
19435;DHT22;9853;50.848;4.108;2024-01-25T07:54:34;6.80;99.90
19435;DHT22;9853;50.848;4.108;2024-01-25T07:56:35;6.70;99.90
19435;DHT22;9853;50.848;4.108;2024-01-25T07:58:36;6.50;99.90
19435;DHT22;9853;50.848;4.108;2024-01-25T08:00:37;6.50;99.90
19435;DHT22;9853;50.848;4.108;2024-01-25T08:02:41;6.60;99.90
19435;DHT22;9853;50.848;4.108;2024-01-25T08:04:43;6.70;99.90
19435;DHT22;9853;50.848;4.108;2024-01-25T08:06:47;6.80;99.90
19435;DHT22;9853;50.848;4.108;2024-01-25T08:08:48;6.70;99.90
19435;DHT22;9853;50.848;4.108;2024-01-25T08:10:49;6.60;99.90
19435;DHT22;9853;50.848;4.108;2024-01-25T08:12:50;6.60;99.90
19435;DHT22;9853;50.848;4.108;2024-01-25T08:14:51;6.50;99.90
19435;DHT22;9853;50.848;4.108;2024-01-25T08:16:51;6.50;99.90
19435;DHT22;9853;50.848;4.108;2024-01-25T08:18:52;6.40;99.90
19435;DHT22;9853;50.848;4.108;2024-01-25T08:20:54;6.50;99.90
19435;DHT22;9853;50.848;4.108;2024-01-25T08:22:55;6.60;99.90
19435;DHT22;9853;50.848;4.108;2024-01-25T08:25:01;6.60;99.90
19435;DHT22;9853;50.848;4.108;2024-01-25T08:27:05;6.90;99.90
19435;DHT22;9853;50.848;4.108;2024-01-25T08:29:13;7.10;99.90
19435;DHT22;9853;50.848;4.108;2024-01-25T08:31:16;7.30;99.90
19435;DHT22;9853;50.848;4.108;2024-01-25T08:33:19;7.40;99.90
19435;DHT22;9853;50.848;4.108;2024-01-25T08:35:21;7.50;99.90
19435;DHT22;9853;50.848;4.108;2024-01-25T08:37:22;7.30;99.90
19435;DHT22;9853;50.848;4.108;2024-01-25T08:39:22;7.40;99.90
19435;DHT22;9853;50.848;4.108;2024-01-25T08:41:23;7.60;99.90
19435;DHT22;9853;50.848;4.108;2024-01-25T08:43:24;7.40;99.90
19435;DHT22;9853;50.848;4.108;2024-01-25T08:45:25;7.30;99.90
19435;DHT22;9853;50.848;4.108;2024-01-25T08:47:29;7.10;99.90
19435;DHT22;9853;50.848;4.108;2024-01-25T08:49:32;7.10;99.90
19435;DHT22;9853;50.848;4.108;2024-01-25T08:51:33;7.20;99.90
19435;DHT22;9853;50.848;4.108;2024-01-25T08:53:34;7.30;99.90
19435;DHT22;9853;50.848;4.108;2024-01-25T08:55:37;7.50;99.90
19435;DHT22;9853;50.848;4.108;2024-01-25T08:57:38;7.60;99.90
19435;DHT22;9853;50.848;4.108;2024-01-25T08:59:41;7.70;99.90
19435;DHT22;9853;50.848;4.108;2024-01-25T09:01:42;7.60;99.90
19435;DHT22;9853;50.848;4.108;2024-01-25T09:03:43;7.60;99.90
19435;DHT22;9853;50.848;4.108;2024-01-25T09:05:44;7.70;99.90
19435;DHT22;9853;50.848;4.108;2024-01-25T09:07:48;7.50;99.90
19435;DHT22;9853;50.848;4.108;2024-01-25T09:09:51;7.30;99.90
19435;DHT22;9853;50.848;4.108;2024-01-25T09:11:52;7.10;99.90
19435;DHT22;9853;50.848;4.108;2024-01-25T09:13:53;7.20;99.90
19435;DHT22;9853;50.848;4.108;2024-01-25T09:15:54;7.30;99.90
19435;DHT22;9853;50.848;4.108;2024-01-25T09:17:54;7.30;99.90
19435;DHT22;9853;50.848;4.108;2024-01-25T09:19:55;7.50;99.90
19435;DHT22;9853;50.848;4.108;2024-01-25T09:22:02;7.70;99.90
19435;DHT22;9853;50.848;4.108;2024-01-25T09:24:08;7.80;99.90
19435;DHT22;9853;50.848;4.108;2024-01-25T09:26:22;7.90;99.90
19435;DHT22;9853;50.848;4.108;2024-01-25T09:28:27;8.10;99.90
19435;DHT22;9853;50.848;4.108;2024-01-25T09:30:35;7.90;99.90
19435;DHT22;9853;50.848;4.108;2024-01-25T09:32:50;7.90;99.90
19435;DHT22;9853;50.848;4.108;2024-01-25T09:34:51;7.90;99.90
19435;DHT22;9853;50.848;4.108;2024-01-25T09:36:57;8.10;99.90
19435;DHT22;9853;50.848;4.108;2024-01-25T09:38:58;8.30;99.90
19435;DHT22;9853;50.848;4.108;2024-01-25T09:41:01;8.20;99.90
19435;DHT22;9853;50.848;4.108;2024-01-25T09:43:02;8.30;99.90
19435;DHT22;9853;50.848;4.108;2024-01-25T09:45:09;8.20;99.90
19435;DHT22;9853;50.848;4.108;2024-01-25T09:47:15;8.20;99.90
19435;DHT22;9853;50.848;4.108;2024-01-25T09:49:20;8.10;99.90
19435;DHT22;9853;50.848;4.108;2024-01-25T09:51:24;8.20;99.90
19435;DHT22;9853;50.848;4.108;2024-01-25T09:53:33;8.20;99.90
19435;DHT22;9853;50.848;4.108;2024-01-25T09:55:37;8.20;99.90
19435;DHT22;9853;50.848;4.108;2024-01-25T09:57:45;8.30;99.90
19435;DHT22;9853;50.848;4.108;2024-01-25T09:59:49;8.40;99.90
19435;DHT22;9853;50.848;4.108;2024-01-25T10:02:32;8.50;99.90
19435;DHT22;9853;50.848;4.108;2024-01-25T10:04:55;8.50;99.90
19435;DHT22;9853;50.848;4.108;2024-01-25T10:06:57;8.70;99.90
19435;DHT22;9853;50.848;4.108;2024-01-25T10:09:03;8.60;99.90
19435;DHT22;9853;50.848;4.108;2024-01-25T10:11:04;8.70;99.90
19435;DHT22;9853;50.848;4.108;2024-01-25T10:13:08;8.70;99.90
19435;DHT22;9853;50.848;4.108;2024-01-25T10:15:23;8.90;99.90
19435;DHT22;9853;50.848;4.108;2024-01-25T10:17:25;8.90;99.90
19435;DHT22;9853;50.848;4.108;2024-01-25T10:19:26;8.80;99.90
19435;DHT22;9853;50.848;4.108;2024-01-25T10:21:27;9.00;99.90
19435;DHT22;9853;50.848;4.108;2024-01-25T10:23:32;9.10;99.90
19435;DHT22;9853;50.848;4.108;2024-01-25T10:25:35;9.40;99.90
19435;DHT22;9853;50.848;4.108;2024-01-25T10:27:41;9.40;99.90
19435;DHT22;9853;50.848;4.108;2024-01-25T10:29:44;9.60;99.90
19435;DHT22;9853;50.848;4.108;2024-01-25T10:31:45;9.60;99.90
19435;DHT22;9853;50.848;4.108;2024-01-25T10:33:54;9.40;99.90
19435;DHT22;9853;50.848;4.108;2024-01-25T10:36:04;9.20;99.90
19435;DHT22;9853;50.848;4.108;2024-01-25T10:38:06;9.10;99.90
19435;DHT22;9853;50.848;4.108;2024-01-25T10:40:10;9.10;99.90
19435;DHT22;9853;50.848;4.108;2024-01-25T10:42:13;9.20;99.90
19435;DHT22;9853;50.848;4.108;2024-01-25T10:44:16;9.20;99.90
19435;DHT22;9853;50.848;4.108;2024-01-25T10:46:20;9.30;99.90
19435;DHT22;9853;50.848;4.108;2024-01-25T10:48:21;9.20;99.90
19435;DHT22;9853;50.848;4.108;2024-01-25T10:50:22;9.40;99.90
19435;DHT22;9853;50.848;4.108;2024-01-25T10:52:25;9.50;99.90
19435;DHT22;9853;50.848;4.108;2024-01-25T10:54:30;9.30;99.90
19435;DHT22;9853;50.848;4.108;2024-01-25T10:56:35;9.10;99.90
19435;DHT22;9853;50.848;4.108;2024-01-25T10:58:41;9.20;99.90
19435;DHT22;9853;50.848;4.108;2024-01-25T11:00:41;9.30;99.90
19435;DHT22;9853;50.848;4.108;2024-01-25T11:02:50;9.40;99.90
19435;DHT22;9853;50.848;4.108;2024-01-25T11:04:55;9.30;99.90
19435;DHT22;9853;50.848;4.108;2024-01-25T11:07:07;9.40;99.90
19435;DHT22;9853;50.848;4.108;2024-01-25T11:09:19;9.40;99.90
19435;DHT22;9853;50.848;4.108;2024-01-25T11:11:21;9.50;99.90
19435;DHT22;9853;50.848;4.108;2024-01-25T11:13:26;9.50;99.90
19435;DHT22;9853;50.848;4.108;2024-01-25T11:15:34;9.40;99.90
19435;DHT22;9853;50.848;4.108;2024-01-25T11:17:37;9.60;99.90
19435;DHT22;9853;50.848;4.108;2024-01-25T11:19:44;9.50;99.90
19435;DHT22;9853;50.848;4.108;2024-01-25T11:22:14;9.50;99.90
19435;DHT22;9853;50.848;4.108;2024-01-25T11:25:50;9.40;99.90
19435;DHT22;9853;50.848;4.108;2024-01-25T11:31:52;9.50;99.90
19435;DHT22;9853;50.848;4.108;2024-01-25T11:36:33;9.40;99.90
19435;DHT22;9853;50.848;4.108;2024-01-25T11:39:24;9.40;99.90
19435;DHT22;9853;50.848;4.108;2024-01-25T11:42:15;9.30;99.90
19435;DHT22;9853;50.848;4.108;2024-01-25T11:47:38;9.30;99.90
19435;DHT22;9853;50.848;4.108;2024-01-25T11:49:42;9.40;99.90
19435;DHT22;9853;50.848;4.108;2024-01-25T11:52:04;9.50;99.90
19435;DHT22;9853;50.848;4.108;2024-01-25T11:54:39;9.40;99.90
19435;DHT22;9853;50.848;4.108;2024-01-25T11:57:42;9.50;99.90
19435;DHT22;9853;50.848;4.108;2024-01-25T12:00:02;9.50;99.90
19435;DHT22;9853;50.848;4.108;2024-01-25T12:02:36;9.50;99.90
19435;DHT22;9853;50.848;4.108;2024-01-25T12:05:10;9.50;99.90
19435;DHT22;9853;50.848;4.108;2024-01-25T12:07:35;9.50;99.90
19435;DHT22;9853;50.848;4.108;2024-01-25T12:09:41;9.40;99.90
19435;DHT22;9853;50.848;4.108;2024-01-25T12:14:35;9.50;99.90
19435;DHT22;9853;50.848;4.108;2024-01-25T12:17:05;9.60;99.90
19435;DHT22;9853;50.848;4.108;2024-01-25T12:19:36;9.60;99.90
19435;DHT22;9853;50.848;4.108;2024-01-25T12:22:44;9.50;99.90
19435;DHT22;9853;50.848;4.108;2024-01-25T12:27:59;9.70;99.90
19435;DHT22;9853;50.848;4.108;2024-01-25T12:30:18;9.80;99.90
19435;DHT22;9853;50.848;4.108;2024-01-25T12:32:28;9.70;99.90
19435;DHT22;9853;50.848;4.108;2024-01-25T12:34:56;9.60;99.90
19435;DHT22;9853;50.848;4.108;2024-01-25T12:37:00;9.70;99.90
19435;DHT22;9853;50.848;4.108;2024-01-25T12:39:06;9.60;99.90
19435;DHT22;9853;50.848;4.108;2024-01-25T12:41:12;9.60;99.90
19435;DHT22;9853;50.848;4.108;2024-01-25T12:43:19;9.60;99.90
19435;DHT22;9853;50.848;4.108;2024-01-25T12:45:46;9.60;99.90
19435;DHT22;9853;50.848;4.108;2024-01-25T12:48:28;9.60;99.90
19435;DHT22;9853;50.848;4.108;2024-01-25T12:50:47;9.70;99.90
19435;DHT22;9853;50.848;4.108;2024-01-25T12:53:17;9.80;99.90
19435;DHT22;9853;50.848;4.108;2024-01-25T12:55:31;10.00;99.90
19435;DHT22;9853;50.848;4.108;2024-01-25T12:57:44;9.90;99.90
19435;DHT22;9853;50.848;4.108;2024-01-25T13:03:58;9.90;99.90
19435;DHT22;9853;50.848;4.108;2024-01-25T13:06:07;9.80;99.90
19435;DHT22;9853;50.848;4.108;2024-01-25T13:09:14;10.00;99.90
19435;DHT22;9853;50.848;4.108;2024-01-25T13:14:27;10.00;99.90
19435;DHT22;9853;50.848;4.108;2024-01-25T13:17:10;10.00;99.90
19435;DHT22;9853;50.848;4.108;2024-01-25T13:19:43;10.10;99.90
19435;DHT22;9853;50.848;4.108;2024-01-25T13:34:29;10.30;99.90
19435;DHT22;9853;50.848;4.108;2024-01-25T13:37:06;10.30;99.90
19435;DHT22;9853;50.848;4.108;2024-01-25T13:39:54;10.40;99.90
19435;DHT22;9853;50.848;4.108;2024-01-25T13:46:13;10.40;99.90
19435;DHT22;9853;50.848;4.108;2024-01-25T13:48:48;10.40;99.90
19435;DHT22;9853;50.848;4.108;2024-01-25T14:44:02;10.60;99.90
19435;DHT22;9853;50.848;4.108;2024-01-25T14:54:12;10.90;99.90
19435;DHT22;9853;50.848;4.108;2024-01-25T15:03:25;10.80;99.90
19435;DHT22;9853;50.848;4.108;2024-01-25T15:05:35;10.90;99.90
19435;DHT22;9853;50.848;4.108;2024-01-25T15:09:08;10.90;99.90
19435;DHT22;9853;50.848;4.108;2024-01-25T15:11:01;10.80;99.90
19435;DHT22;9853;50.848;4.108;2024-01-25T15:13:16;10.90;99.90
19435;DHT22;9853;50.848;4.108;2024-01-25T15:15:44;11.00;99.90
19435;DHT22;9853;50.848;4.108;2024-01-25T15:23:46;10.80;99.90
19435;DHT22;9853;50.848;4.108;2024-01-25T15:27:11;10.90;99.90
19435;DHT22;9853;50.848;4.108;2024-01-25T15:30:27;10.90;99.90
19435;DHT22;9853;50.848;4.108;2024-01-25T15:40:09;10.90;99.90